Nearby METAR Reports

 

KAGC - Pittsburgh/Alleg, Pennsylvania, USA
Distance from station: SW 8mi, 12km
Updated: Sun, 25-Jul-2021 5:53pm EDT
Partly cloudy
Partly cloudy
 Wind from SSW
Wind: SSW 8 mph , 13 km/h
Temperature: 82°F , 28°C
Heat Index: 85°F , 29°C
Dew Point: 68°F , 20°C
Humidity: 62%
Barometer: 29.92 inHg , 1013.2 hPa
Clouds: Partly cloudy
Visibility: 8 miles , 13 km
Cloud details: Partly cloudy 3600 ft
2021/07/25 21:53 KAGC 252153Z 21007KT 8SM SCT036 28/20 A2992 RMK AO2 SLP126 T02830200
KLBE - Latrobe/Westmorl, Pennsylvania, USA
Distance from station: ESE 24mi, 38km
Updated: Sun, 25-Jul-2021 5:50pm EDT
Partly cloudy
Partly cloudy
 Wind from SW
Wind: SW 9 mph , 15 km/h
Temperature: 84°F , 29°C
Heat Index: 89°F , 32°C
Dew Point: 72°F , 22°C
Humidity: 66%
Barometer: 29.93 inHg , 1013.5 hPa
Clouds: Partly cloudy
Visibility: 10 miles , 16 km
Cloud details: Few Clouds 6500 ft
Partly cloudy 11000 ft
2021/07/25 21:50 KLBE 252150Z 22008KT 10SM FEW065 SCT110 29/22 A2993
 
KPIT - Pittsburgh, Pennsylvania, USA
Distance from station: WNW 25mi, 40km
Updated: Sun, 25-Jul-2021 5:51pm EDT
Partly cloudy
Partly cloudy
 Wind from varies
Wind: varies 3 mph , 6 km/h
Temperature: 84°F , 29°C
Heat Index: 88°F , 31°C
Dew Point: 70°F , 21°C
Humidity: 62%
Barometer: 29.92 inHg , 1013.2 hPa
Clouds: Partly cloudy
Visibility: 10 miles , 16 km
Cloud details: Partly cloudy 3400 ft
Partly cloudy 5500 ft
2021/07/25 21:51 KPIT 252151Z VRB03KT 10SM SCT034TCU SCT055 29/21 A2992 RMK AO2 SLP129 TCU SE-S T02890206
KBTP - Butler Co., Pennsylvania, USA
Distance from station: NNW 25mi, 41km
Updated: Sun, 25-Jul-2021 5:56pm EDT
Clear
Clear
 Wind from varies
Wind: varies 5 mph , 7 km/h
Temperature: 84°F , 29°C
Heat Index: 88°F , 31°C
Dew Point: 70°F , 21°C
Humidity: 62%
Barometer: 29.93 inHg , 1013.5 hPa
Clouds: Clear
Visibility: 10 miles , 16 km
2021/07/25 21:56 KBTP 252156Z AUTO VRB04KT 10SM CLR 29/21 A2993 RMK AO2 SLP127 T02940206
 
KAFJ - Washington, Pennsylvania, USA
Distance from station: SW 32mi, 52km
Updated: Sun, 25-Jul-2021 5:56pm EDT
Overcast
Overcast
 Wind from SSW
Wind: SSW 13 mph , 20 km/h
Temperature: 84°F , 29°C
Heat Index: 88°F , 31°C
Dew Point: 70°F , 21°C
Humidity: 62%
Barometer: 29.95 inHg , 1014.2 hPa
Clouds: Overcast
Visibility: 10 miles , 16 km
Cloud details: Mostly cloudy 3700 ft
Overcast 4600 ft
2021/07/25 21:56 KAFJ 252156Z AUTO 21011KT 10SM BKN037 OVC046 29/21 A2995 RMK AO2 SLP133 T02890211
KBVI - Beaver Falls Arp, Pennsylvania, USA
Distance from station: NW 40mi, 64km
Updated: Sun, 25-Jul-2021 5:55pm EDT
Clear
Clear
 Wind from calm
Wind: Calm
Temperature: 86°F , 30°C
Heat Index: 88°F , 31°C
Dew Point: 64°F , 18°C
Humidity: 49%
Barometer: 29.93 inHg , 1013.5 hPa
Clouds: Clear
Visibility: 10 miles , 16 km
2021/07/25 21:55 KBVI 252155Z AUTO 00000KT 10SM CLR 30/18 A2993 RMK AO2 T02990183
 
KIDI - Indiana/Stewart, Pennsylvania, USA
Distance from station: ENE 40mi, 65km
Updated: Sun, 25-Jul-2021 5:55pm EDT
Mostly cloudy
Mostly cloudy
 Wind from WSW
Wind: WSW 8 mph , 13 km/h
Temperature: 82°F , 28°C
Heat Index: 86°F , 30°C
Dew Point: 70°F , 21°C
Humidity: 66%
Barometer: 29.96 inHg , 1014.6 hPa
Clouds: Mostly cloudy
Visibility: 10 miles , 16 km
Cloud details: Mostly cloudy 3700 ft
Mostly cloudy 4700 ft
2021/07/25 21:55 KIDI 252155Z AUTO 25007KT 10SM BKN037 BKN047 28/21 A2996 RMK A01
KHLG - Wheeling, West Virginia, USA
Distance from station: WSW 48mi, 77km
Updated: Sun, 25-Jul-2021 5:53pm EDT
Clear
Clear
 Wind from WSW
Wind: WSW 6 mph , 9 km/h
Temperature: 82°F , 28°C
Heat Index: 86°F , 30°C
Dew Point: 70°F , 21°C
Humidity: 66%
Barometer: 29.93 inHg , 1013.5 hPa
Clouds: Clear
Visibility: 10 miles , 16 km
2021/07/25 21:53 KHLG 252153Z 24005KT 10SM CLR 28/21 A2993
 
K2G9 - Somerset, Pennsylvania, USA
Distance from station: ESE 49mi, 79km
Updated: Sun, 25-Jul-2021 5:55pm EDT
Partly cloudy
Partly cloudy
 Wind from W
Wind: W 12 mph , 19 km/h, Gust: 21 mph , 33 km/h
Temperature: 79°F , 26°C
Dew Point: 64°F , 18°C
Humidity: 61%
Barometer: 29.99 inHg , 1015.6 hPa
Clouds: Partly cloudy
Visibility: 10 miles , 16 km
Cloud details: Partly cloudy 6000 ft
Partly cloudy 7000 ft
2021/07/25 21:55 K2G9 252155Z AUTO 27010G18KT 10SM SCT060 SCT070 26/18 A2999 RMK AO2